Time;durP1;ratioP1;P1;durP2;ratioP2;P2;SDS_P1;SDS_P2;PMS_P1;PMS_P2;Temp;Humidity;BMP_temperature;BMP_pressure;BME280_temperature;BME280_humidity;BME280_pressure;Samples;Min_cycle;Max_cycle;Signal;HPM_P1;HPM_P2
2023/07/02 00:02:26;;;;;;;1999.90;999.90;;;18.20;99.90;;;;;;5032223;28;20037;-71
2023/07/02 00:04:51;;;;;;;1999.90;999.90;;;18.20;99.90;;;;;;5033976;28;20112;-70
2023/07/02 00:07:17;;;;;;;1999.90;999.90;;;18.20;99.90;;;;;;5034179;28;20104;-71
2023/07/02 00:09:43;;;;;;;1999.90;999.90;;;18.20;99.90;;;;;;5033802;28;20435;-71
2023/07/02 00:12:09;;;;;;;1999.90;999.90;;;18.10;99.90;;;;;;5034392;28;20088;-70
2023/07/02 00:14:35;;;;;;;1999.90;999.90;;;18.10;99.90;;;;;;5033658;28;20053;-71
2023/07/02 00:17:00;;;;;;;1999.90;999.90;;;18.10;99.90;;;;;;5033791;28;20021;-71
2023/07/02 00:19:27;;;;;;;1999.90;999.90;;;18.10;99.90;;;;;;5033897;28;20468;-71
2023/07/02 00:21:56;;;;;;;1999.90;999.90;;;18.20;99.90;;;;;;5034004;28;20544;-70
2023/07/02 00:24:21;;;;;;;1999.90;999.90;;;18.20;99.90;;;;;;5033704;28;20033;-71
2023/07/02 00:26:47;;;;;;;1999.90;999.90;;;18.10;99.90;;;;;;5033514;28;20372;-70
2023/07/02 00:29:13;;;;;;;1999.90;999.90;;;18.10;99.90;;;;;;5033128;28;20032;-71
2023/07/02 00:31:38;;;;;;;1999.90;999.90;;;18.10;99.90;;;;;;5034030;28;20048;-71
2023/07/02 00:34:04;;;;;;;1999.90;999.90;;;18.10;99.90;;;;;;5033393;28;20037;-72
2023/07/02 00:36:31;;;;;;;1999.90;999.90;;;18.00;99.90;;;;;;5033706;28;20037;-71
2023/07/02 00:38:57;;;;;;;1999.90;999.90;;;18.10;99.90;;;;;;5033529;28;20479;-71
2023/07/02 00:41:23;;;;;;;1999.90;999.90;;;18.10;99.90;;;;;;5033493;28;20061;-71
2023/07/02 00:43:49;;;;;;;1999.90;999.90;;;18.10;99.90;;;;;;5033723;28;20087;-71
2023/07/02 00:46:17;;;;;;;1999.90;999.90;;;18.10;99.90;;;;;;5033481;28;20021;-72
2023/07/02 00:48:45;;;;;;;1999.90;999.90;;;18.00;99.90;;;;;;5033245;28;20396;-72
2023/07/02 00:51:15;;;;;;;1999.90;999.90;;;18.00;99.90;;;;;;5033568;28;20014;-71
2023/07/02 00:53:41;;;;;;;1999.90;999.90;;;18.00;99.90;;;;;;5033414;28;20101;-71
2023/07/02 00:56:07;;;;;;;1999.90;999.90;;;17.90;99.90;;;;;;5033640;28;20096;-71
2023/07/02 00:58:37;;;;;;;1999.90;999.90;;;17.90;99.90;;;;;;5033285;28;20029;-70
2023/07/02 01:01:03;;;;;;;1999.90;999.90;;;17.80;99.90;;;;;;5032366;28;20461;-72
2023/07/02 01:03:28;;;;;;;1999.90;999.90;;;17.80;99.90;;;;;;5032981;28;20056;-71
2023/07/02 01:05:54;;;;;;;1999.90;999.90;;;17.80;99.90;;;;;;5033236;28;20025;-71
2023/07/02 01:08:20;;;;;;;1999.90;999.90;;;17.80;99.90;;;;;;5033787;28;20045;-71
2023/07/02 01:10:46;;;;;;;1999.90;999.90;;;17.70;99.90;;;;;;5032883;28;20022;-71
2023/07/02 01:13:16;;;;;;;1999.90;999.90;;;17.70;99.90;;;;;;5032956;28;20045;-72
2023/07/02 01:15:43;;;;;;;1999.90;999.90;;;17.60;99.90;;;;;;5032848;28;20485;-71
2023/07/02 01:18:11;;;;;;;1999.90;999.90;;;17.60;99.90;;;;;;5033299;28;20068;-71
2023/07/02 01:20:37;;;;;;;1999.90;999.90;;;17.60;99.90;;;;;;5032417;28;20021;-70
2023/07/02 01:23:04;;;;;;;1999.90;999.90;;;17.50;99.90;;;;;;5031486;28;20032;-71
2023/07/02 01:25:29;;;;;;;1999.90;999.90;;;17.50;99.90;;;;;;5032816;28;20036;-71
2023/07/02 01:27:56;;;;;;;1999.90;999.90;;;17.50;99.90;;;;;;5032882;28;20547;-71
2023/07/02 01:30:22;;;;;;;1999.90;999.90;;;17.40;99.90;;;;;;5033041;28;20033;-71
2023/07/02 01:32:47;;;;;;;1999.90;999.90;;;17.40;99.90;;;;;;5033399;28;20388;-71
2023/07/02 01:35:13;;;;;;;1999.90;999.90;;;17.30;99.90;;;;;;5032876;28;20033;-72
2023/07/02 01:37:39;;;;;;;1999.90;999.90;;;17.30;99.90;;;;;;5032873;28;20037;-72
2023/07/02 01:40:08;;;;;;;1999.90;999.90;;;17.30;99.90;;;;;;5032857;28;20542;-71
2023/07/02 01:42:34;;;;;;;1999.90;999.90;;;17.20;99.90;;;;;;5033070;28;20030;-71
2023/07/02 01:45:00;;;;;;;1999.90;999.90;;;17.20;99.90;;;;;;5032720;28;20040;-71
2023/07/02 01:47:26;;;;;;;1999.90;999.90;;;17.10;99.90;;;;;;5032852;28;20068;-71
2023/07/02 01:49:51;;;;;;;1999.90;999.90;;;17.10;99.90;;;;;;5032627;28;20076;-71
2023/07/02 01:52:17;;;;;;;1999.90;999.90;;;17.10;99.90;;;;;;5032940;28;20074;-71
2023/07/02 01:54:44;;;;;;;1999.90;999.90;;;17.10;99.90;;;;;;5032507;28;20033;-71
2023/07/02 01:57:09;;;;;;;1999.90;999.90;;;17.00;99.90;;;;;;5033033;28;20028;-71
2023/07/02 01:59:35;;;;;;;1999.90;999.90;;;17.00;99.90;;;;;;5030922;28;20038;-71
2023/07/02 02:02:01;;;;;;;1999.90;999.90;;;17.00;99.90;;;;;;5032042;28;20018;-71
2023/07/02 02:04:27;;;;;;;1999.90;999.90;;;17.00;99.90;;;;;;5032506;28;20032;-71
2023/07/02 02:06:53;;;;;;;1999.90;999.90;;;17.00;99.90;;;;;;5032601;28;20022;-71
2023/07/02 02:09:19;;;;;;;1999.90;999.90;;;17.00;99.90;;;;;;5032829;28;20024;-71
2023/07/02 02:11:47;;;;;;;1999.90;999.90;;;17.00;99.90;;;;;;5032484;28;20026;-71
2023/07/02 02:14:13;;;;;;;1999.90;999.90;;;16.90;99.90;;;;;;5032213;28;20063;-71
2023/07/02 02:16:39;;;;;;;1999.90;999.90;;;16.90;99.90;;;;;;5027704;28;20086;-72
2023/07/02 02:19:05;;;;;;;1999.90;999.90;;;16.90;99.90;;;;;;5013029;28;20084;-72
2023/07/02 02:21:31;;;;;;;1999.90;999.90;;;16.90;99.90;;;;;;5012826;28;20034;-71
2023/07/02 02:23:57;;;;;;;1999.90;999.90;;;16.90;99.90;;;;;;5016299;28;20034;-71
2023/07/02 02:26:24;;;;;;;1999.90;999.90;;;16.90;99.90;;;;;;5035805;28;20560;-71
2023/07/02 02:28:50;;;;;;;1999.90;999.90;;;16.90;99.90;;;;;;5036431;28;20450;-71
2023/07/02 02:31:16;;;;;;;1999.90;999.90;;;16.90;99.90;;;;;;5036132;28;20021;-71
2023/07/02 02:33:41;;;;;;;1999.90;999.90;;;16.90;99.90;;;;;;5036371;28;20052;-71
2023/07/02 02:36:07;;;;;;;1999.90;999.90;;;16.90;99.90;;;;;;5036074;28;20026;-71
2023/07/02 02:38:34;;;;;;;1999.90;999.90;;;16.80;99.90;;;;;;5035606;28;20029;-71
2023/07/02 02:41:00;;;;;;;1999.90;999.90;;;16.80;99.90;;;;;;5036060;28;20029;-71
2023/07/02 02:43:26;;;;;;;1999.90;999.90;;;16.90;99.90;;;;;;5036070;28;20021;-71
2023/07/02 02:45:51;;;;;;;1999.90;999.90;;;16.80;99.90;;;;;;5035957;28;20491;-71
2023/07/02 02:48:17;;;;;;;1999.90;999.90;;;16.80;99.90;;;;;;5035801;28;20021;-70
2023/07/02 02:50:43;;;;;;;1999.90;999.90;;;16.90;99.90;;;;;;5034045;28;20369;-71
2023/07/02 02:53:09;;;;;;;1999.90;999.90;;;16.90;99.90;;;;;;5035648;28;20109;-71
2023/07/02 02:55:36;;;;;;;1999.90;999.90;;;16.90;99.90;;;;;;5035947;28;20026;-71
2023/07/02 02:58:01;;;;;;;1999.90;999.90;;;16.90;99.90;;;;;;5035512;28;20029;-72
2023/07/02 03:00:27;;;;;;;1999.90;999.90;;;16.90;99.90;;;;;;5035692;28;20109;-71
2023/07/02 03:02:52;;;;;;;1999.90;999.90;;;16.90;99.90;;;;;;5034385;28;20032;-71
2023/07/02 03:05:18;;;;;;;1999.90;999.90;;;16.80;99.90;;;;;;5035112;28;20018;-71
2023/07/02 03:07:44;;;;;;;1999.90;999.90;;;16.80;99.90;;;;;;5035489;28;20029;-71
2023/07/02 03:10:09;;;;;;;1999.90;999.90;;;16.90;99.90;;;;;;5034908;28;20097;-72
2023/07/02 03:12:35;;;;;;;1999.90;999.90;;;16.90;99.90;;;;;;5035241;28;20503;-71
2023/07/02 03:15:01;;;;;;;1999.90;999.90;;;16.80;99.90;;;;;;5035000;28;20554;-71
2023/07/02 03:17:27;;;;;;;1999.90;999.90;;;16.80;99.90;;;;;;5034994;28;20049;-71
2023/07/02 03:19:53;;;;;;;1999.90;999.90;;;16.80;99.90;;;;;;5035105;28;20029;-71
2023/07/02 03:22:19;;;;;;;1999.90;999.90;;;16.80;99.90;;;;;;5034034;28;20071;-71
2023/07/02 03:24:44;;;;;;;1999.90;999.90;;;16.70;99.90;;;;;;5034966;28;20055;-71
2023/07/02 03:27:10;;;;;;;1999.90;999.90;;;16.70;99.90;;;;;;5034984;28;20029;-71
2023/07/02 03:29:37;;;;;;;1999.90;999.90;;;16.70;99.90;;;;;;5034806;28;20056;-71
2023/07/02 03:32:04;;;;;;;1999.90;999.90;;;16.70;99.90;;;;;;5034723;28;20104;-71
2023/07/02 03:34:30;;;;;;;1999.90;999.90;;;16.70;99.90;;;;;;5034866;28;20032;-71
2023/07/02 03:36:55;;;;;;;1999.90;999.90;;;16.70;99.90;;;;;;5035053;28;20037;-71
2023/07/02 03:39:21;;;;;;;1999.90;999.90;;;16.70;99.90;;;;;;5034791;28;20029;-71
2023/07/02 03:41:47;;;;;;;1999.90;999.90;;;16.80;99.90;;;;;;5034887;28;20033;-71
2023/07/02 03:44:12;;;;;;;1999.90;999.90;;;16.80;99.90;;;;;;5034486;28;20029;-71
2023/07/02 03:46:38;;;;;;;1999.90;999.90;;;16.80;99.90;;;;;;5034815;28;20472;-72
2023/07/02 03:49:04;;;;;;;1999.90;999.90;;;16.80;99.90;;;;;;5034627;28;20033;-71
2023/07/02 03:51:30;;;;;;;1999.90;999.90;;;16.80;99.90;;;;;;5034093;28;20029;-71
2023/07/02 03:53:56;;;;;;;1999.90;999.90;;;16.80;99.90;;;;;;5034635;28;20010;-71
2023/07/02 03:56:21;;;;;;;1999.90;999.90;;;16.80;99.90;;;;;;5034396;28;20472;-71
2023/07/02 03:58:47;;;;;;;1999.90;999.90;;;16.80;99.90;;;;;;5034511;28;20068;-71
2023/07/02 04:01:13;;;;;;;1999.90;999.90;;;16.70;99.90;;;;;;5034432;28;20021;-71
2023/07/02 04:03:39;;;;;;;1999.90;999.90;;;16.70;99.90;;;;;;5033190;28;20021;-71
2023/07/02 04:06:07;;;;;;;1999.90;999.90;;;16.70;99.90;;;;;;5033980;28;20068;-70
2023/07/02 04:08:34;;;;;;;1999.90;999.90;;;16.70;99.90;;;;;;5033978;28;20071;-71
2023/07/02 04:10:59;;;;;;;1999.90;999.90;;;16.70;99.90;;;;;;5034206;28;20449;-71
2023/07/02 04:13:25;;;;;;;1999.90;999.90;;;16.60;99.90;;;;;;5033984;28;20088;-71
2023/07/02 04:15:51;;;;;;;1999.90;999.90;;;16.60;99.90;;;;;;5033775;28;20033;-71
2023/07/02 04:18:16;;;;;;;1999.90;999.90;;;16.60;99.90;;;;;;5033891;28;20491;-71
2023/07/02 04:20:42;;;;;;;1999.90;999.90;;;16.60;99.90;;;;;;5033701;28;20036;-71
2023/07/02 04:23:08;;;;;;;1999.90;999.90;;;16.60;99.90;;;;;;5033962;28;20025;-71
2023/07/02 04:25:33;;;;;;;1999.90;999.90;;;16.50;99.90;;;;;;5033864;28;20025;-71
2023/07/02 04:27:59;;;;;;;1999.90;999.90;;;16.50;99.90;;;;;;5033180;28;20036;-71
2023/07/02 04:30:25;;;;;;;1999.90;999.90;;;16.50;99.90;;;;;;5033522;28;20032;-70
2023/07/02 04:32:51;;;;;;;1999.90;999.90;;;16.50;99.90;;;;;;5034029;28;20060;-71
2023/07/02 04:35:17;;;;;;;1999.90;999.90;;;16.40;99.90;;;;;;5033958;28;20475;-71
2023/07/02 04:37:43;;;;;;;1999.90;999.90;;;16.40;99.90;;;;;;5033828;28;20112;-71
2023/07/02 04:40:10;;;;;;;1999.90;999.90;;;16.40;99.90;;;;;;5033748;28;20392;-71
2023/07/02 04:42:39;;;;;;;1999.90;999.90;;;16.40;99.90;;;;;;5032333;28;20029;-71
2023/07/02 04:45:06;;;;;;;1999.90;999.90;;;16.40;99.90;;;;;;5033491;28;20079;-71
2023/07/02 04:47:32;;;;;;;1999.90;999.90;;;16.40;99.90;;;;;;5033243;28;20549;-71
2023/07/02 04:49:59;;;;;;;1999.90;999.90;;;16.40;99.90;;;;;;5033227;28;20025;-71
2023/07/02 04:52:24;;;;;;;1999.90;999.90;;;16.40;99.90;;;;;;5033897;28;20021;-71
2023/07/02 04:54:50;;;;;;;1999.90;999.90;;;16.40;99.90;;;;;;5033322;28;20439;-71
2023/07/02 04:57:16;;;;;;;1999.90;999.90;;;16.40;99.90;;;;;;5033512;28;20036;-71
2023/07/02 04:59:42;;;;;;;1999.90;999.90;;;16.40;99.90;;;;;;5033778;28;20032;-71
2023/07/02 05:02:08;;;;;;;1999.90;999.90;;;16.40;99.90;;;;;;5032916;28;20436;-71
2023/07/02 05:04:33;;;;;;;1999.90;999.90;;;16.40;99.90;;;;;;5032486;28;20024;-71
2023/07/02 05:07:03;;;;;;;1999.90;999.90;;;16.40;99.90;;;;;;5032983;28;20026;-71
2023/07/02 05:09:28;;;;;;;1999.90;999.90;;;16.40;99.90;;;;;;5033187;28;20013;-71
2023/07/02 05:11:54;;;;;;;1999.90;999.90;;;16.40;99.90;;;;;;5032039;28;20026;-71
2023/07/02 05:14:19;;;;;;;1999.90;999.90;;;16.40;99.90;;;;;;5032744;28;20127;-71
2023/07/02 05:16:45;;;;;;;1999.90;999.90;;;16.40;99.90;;;;;;5033200;28;20500;-71
2023/07/02 05:19:11;;;;;;;1999.90;999.90;;;16.40;99.90;;;;;;5032959;28;20072;-72
2023/07/02 05:21:36;;;;;;;1999.90;999.90;;;16.40;99.90;;;;;;5033275;28;20030;-72
2023/07/02 05:24:02;;;;;;;1999.90;999.90;;;16.40;99.90;;;;;;5033137;28;20021;-71
2023/07/02 05:26:27;;;;;;;1999.90;999.90;;;16.40;99.90;;;;;;5032822;28;20080;-71
2023/07/02 05:28:53;;;;;;;1999.90;999.90;;;16.50;99.90;;;;;;5033402;28;20018;-71
2023/07/02 05:31:19;;;;;;;1999.90;999.90;;;16.50;99.90;;;;;;5032927;28;20380;-71
2023/07/02 05:33:45;;;;;;;1999.90;999.90;;;16.50;99.90;;;;;;5033032;28;20604;-71
2023/07/02 05:36:10;;;;;;;1999.90;999.90;;;16.60;99.90;;;;;;5031822;28;20036;-71
2023/07/02 05:38:36;;;;;;;1999.90;999.90;;;16.60;99.90;;;;;;5032729;28;20026;-71
2023/07/02 05:41:03;;;;;;;1999.90;999.90;;;16.70;99.90;;;;;;5033206;28;20022;-71
2023/07/02 05:43:29;;;;;;;1999.90;999.90;;;16.70;99.90;;;;;;5032858;28;20017;-71
2023/07/02 05:45:54;;;;;;;1999.90;999.90;;;16.80;99.90;;;;;;5033377;28;20029;-71
2023/07/02 05:48:20;;;;;;;1999.90;999.90;;;16.90;99.90;;;;;;5032999;28;20022;-71
2023/07/02 05:50:46;;;;;;;1999.90;999.90;;;16.90;99.90;;;;;;5032603;28;20033;-71
2023/07/02 05:53:11;;;;;;;1999.90;999.90;;;17.00;99.90;;;;;;5033033;28;20018;-71
2023/07/02 05:55:37;;;;;;;1999.90;999.90;;;17.00;99.90;;;;;;5032496;28;20033;-71
2023/07/02 05:58:03;;;;;;;1999.90;999.90;;;17.00;99.90;;;;;;5032813;28;20025;-71
2023/07/02 06:00:29;;;;;;;1999.90;999.90;;;17.10;99.90;;;;;;5036168;28;20036;-71
2023/07/02 06:02:55;;;;;;;1999.90;999.90;;;17.20;99.90;;;;;;5036238;28;20025;-71
2023/07/02 06:05:21;;;;;;;1999.90;999.90;;;17.30;99.90;;;;;;5035743;28;20112;-71
2023/07/02 06:07:46;;;;;;;1999.90;999.90;;;17.30;99.90;;;;;;5036294;28;20483;-71
2023/07/02 06:10:12;;;;;;;1999.90;999.90;;;17.30;99.90;;;;;;5036409;28;20104;-71
2023/07/02 06:12:38;;;;;;;1999.90;999.90;;;17.30;99.90;;;;;;5036220;28;20057;-71
2023/07/02 06:15:04;;;;;;;1999.90;999.90;;;17.40;99.90;;;;;;5036157;28;20073;-71
2023/07/02 06:17:30;;;;;;;1999.90;999.90;;;17.50;99.90;;;;;;5036095;28;20061;-71
2023/07/02 06:19:57;;;;;;;1999.90;999.90;;;17.50;99.90;;;;;;5036076;28;20116;-71
2023/07/02 06:22:23;;;;;;;1999.90;999.90;;;17.60;99.90;;;;;;5036416;28;20064;-71
2023/07/02 06:24:49;;;;;;;1999.90;999.90;;;17.70;99.90;;;;;;5036125;28;20057;-71
2023/07/02 06:27:14;;;;;;;1999.90;999.90;;;17.80;99.90;;;;;;5036256;28;20028;-71
2023/07/02 06:29:40;;;;;;;1999.90;999.90;;;17.80;99.90;;;;;;5036131;28;20041;-71
2023/07/02 06:32:06;;;;;;;1999.90;999.90;;;17.90;99.90;;;;;;5035713;28;20484;-71
2023/07/02 06:34:31;;;;;;;1999.90;999.90;;;17.90;99.90;;;;;;5035743;28;20100;-71
2023/07/02 06:36:57;;;;;;;1999.90;999.90;;;17.90;99.90;;;;;;5036073;28;20061;-71
2023/07/02 06:39:23;;;;;;;1999.90;999.90;;;18.00;99.90;;;;;;5036015;28;20025;-71
2023/07/02 06:41:48;;;;;;;1999.90;999.90;;;18.00;99.90;;;;;;5036086;28;20026;-71
2023/07/02 06:44:14;;;;;;;1999.90;999.90;;;18.20;99.90;;;;;;5035758;28;20087;-71
2023/07/02 06:46:40;;;;;;;1999.90;999.90;;;18.30;99.90;;;;;;5035439;28;20049;-71
2023/07/02 06:49:06;;;;;;;1999.90;999.90;;;18.30;99.90;;;;;;5035614;28;20029;-71
2023/07/02 06:51:34;;;;;;;1999.90;999.90;;;18.40;99.90;;;;;;5035743;28;20109;-72
2023/07/02 06:53:59;;;;;;;1999.90;999.90;;;18.70;99.90;;;;;;5035748;28;20021;-71
2023/07/02 06:56:25;;;;;;;1999.90;999.90;;;19.20;99.90;;;;;;5035943;28;20048;-71
2023/07/02 06:58:50;;;;;;;1999.90;999.90;;;19.40;99.90;;;;;;5035269;28;20022;-71
2023/07/02 07:01:16;;;;;;;1999.90;999.90;;;19.50;99.90;;;;;;5035425;28;20045;-71
2023/07/02 07:03:42;;;;;;;1999.90;999.90;;;19.30;99.90;;;;;;5035310;28;20060;-72
2023/07/02 07:06:07;;;;;;;1999.90;999.90;;;19.30;99.90;;;;;;5034624;28;20547;-72
2023/07/02 07:08:33;;;;;;;1999.90;999.90;;;19.30;99.90;;;;;;5035787;28;20483;-71
2023/07/02 07:10:58;;;;;;;1999.90;999.90;;;19.40;99.90;;;;;;5034599;28;20021;-71
2023/07/02 07:13:24;;;;;;;1999.90;999.90;;;19.50;99.90;;;;;;5033917;28;20113;-71
2023/07/02 07:15:50;;;;;;;1999.90;999.90;;;19.60;99.90;;;;;;5035275;28;20460;-71
2023/07/02 07:18:15;;;;;;;1999.90;999.90;;;19.50;99.90;;;;;;5035291;28;20072;-72
2023/07/02 07:20:42;;;;;;;1999.90;999.90;;;19.40;99.90;;;;;;5035030;28;20030;-71
2023/07/02 07:23:07;;;;;;;1999.90;999.90;;;19.40;99.90;;;;;;5033607;28;20021;-71
2023/07/02 07:25:33;;;;;;;1999.90;999.90;;;19.70;99.90;;;;;;5034080;28;20511;-71
2023/07/02 07:28:02;;;;;;;1999.90;999.90;;;19.80;99.90;;;;;;5035175;28;20033;-71
2023/07/02 07:30:27;;;;;;;1999.90;999.90;;;20.00;99.90;;;;;;5034794;28;20034;-71
2023/07/02 07:32:53;;;;;;;1999.90;999.90;;;20.10;99.90;;;;;;5035325;28;20028;-71
2023/07/02 07:35:21;;;;;;;1999.90;999.90;;;20.10;99.90;;;;;;5033302;28;20037;-71
2023/07/02 07:37:47;;;;;;;1999.90;999.90;;;20.30;99.90;;;;;;5034565;28;20033;-71
2023/07/02 07:40:13;;;;;;;1999.90;999.90;;;20.40;99.90;;;;;;5034876;28;20052;-71
2023/07/02 07:42:40;;;;;;;1999.90;999.90;;;21.10;99.90;;;;;;5034939;28;20026;-71
2023/07/02 07:45:06;;;;;;;1999.90;999.90;;;21.50;99.90;;;;;;5034527;28;20469;-71
2023/07/02 07:47:31;;;;;;;1999.90;999.90;;;21.30;99.90;;;;;;5034586;28;20022;-71
2023/07/02 07:49:57;;;;;;;1999.90;999.90;;;21.00;99.90;;;;;;5034565;28;20453;-72
2023/07/02 07:52:22;;;;;;;1999.90;999.90;;;22.20;99.90;;;;;;5034487;28;20064;-71
2023/07/02 07:54:48;;;;;;;1999.90;999.90;;;23.10;99.90;;;;;;5034511;28;20021;-72
2023/07/02 07:57:14;;;;;;;1999.90;999.90;;;25.20;99.90;;;;;;5034980;28;20024;-72
2023/07/02 07:59:40;;;;;;;1999.90;999.90;;;25.00;99.90;;;;;;5034380;28;20026;-72
2023/07/02 08:02:06;;;;;;;1999.90;999.90;;;24.20;99.90;;;;;;5033993;28;20037;-72
2023/07/02 08:04:32;;;;;;;1999.90;999.90;;;25.60;99.90;;;;;;5032724;28;20416;-72
2023/07/02 08:06:57;;;;;;;1999.90;999.90;;;26.30;99.90;;;;;;5033309;28;20025;-72
2023/07/02 08:09:24;;;;;;;1999.90;999.90;;;27.10;99.90;;;;;;5034387;28;20028;-72
2023/07/02 08:11:50;;;;;;;1999.90;999.90;;;26.70;99.90;;;;;;5034004;28;20041;-72
2023/07/02 08:14:18;;;;;;;1999.90;999.90;;;25.60;99.90;;;;;;5033991;28;20138;-71
2023/07/02 08:16:44;;;;;;;1999.90;999.90;;;23.60;99.90;;;;;;5033346;28;20023;-71
2023/07/02 08:19:10;;;;;;;1999.90;999.90;;;23.00;99.90;;;;;;5034038;28;20033;-71
2023/07/02 08:21:35;;;;;;;1999.90;999.90;;;21.80;99.90;;;;;;5033323;28;20029;-72
2023/07/02 08:24:01;;;;;;;1999.90;999.90;;;23.50;99.90;;;;;;5034024;28;20021;-71
2023/07/02 08:26:27;;;;;;;1999.90;999.90;;;23.10;99.90;;;;;;5033721;28;20021;-71
2023/07/02 08:28:52;;;;;;;1999.90;999.90;;;23.60;99.90;;;;;;5034314;28;20056;-72
2023/07/02 08:31:18;;;;;;;1999.90;999.90;;;25.30;99.90;;;;;;5033588;28;20032;-72
2023/07/02 08:33:43;;;;;;;1999.90;999.90;;;26.60;99.90;;;;;;5033766;28;20061;-72
2023/07/02 08:36:09;;;;;;;1999.90;999.90;;;27.70;99.90;;;;;;5033922;28;20084;-72
2023/07/02 08:38:35;;;;;;;1999.90;999.90;;;27.90;99.90;;;;;;5033546;28;20408;-72
2023/07/02 08:41:00;;;;;;;1999.90;999.90;;;28.00;99.90;;;;;;5034247;28;20032;-72
2023/07/02 08:43:29;;;;;;;1999.90;999.90;;;27.50;99.90;;;;;;5033341;28;20030;-72
2023/07/02 08:45:55;;;;;;;1999.90;999.90;;;28.20;99.90;;;;;;5033922;28;20502;-72
2023/07/02 08:48:23;;;;;;;1999.90;999.90;;;28.70;99.90;;;;;;5033636;28;20108;-72
2023/07/02 08:50:49;;;;;;;1999.90;999.90;;;28.90;99.90;;;;;;5033269;28;20022;-72
2023/07/02 08:53:15;;;;;;;1999.90;999.90;;;29.00;99.90;;;;;;5033586;28;20530;-72
2023/07/02 08:55:41;;;;;;;1999.90;999.90;;;28.80;99.90;;;;;;5033428;28;20400;-72
2023/07/02 08:58:07;;;;;;;1999.90;999.90;;;29.40;99.90;;;;;;5033421;28;20014;-72
2023/07/02 09:00:36;;;;;;;1999.90;999.90;;;29.10;99.90;;;;;;5033679;28;20025;-72
2023/07/02 09:03:17;;;;;;;1999.90;999.90;;;28.50;99.90;;;;;;5033135;28;20018;-72
2023/07/02 09:05:52;;;;;;;1999.90;999.90;;;27.70;99.90;;;;;;5033701;28;20032;-72
2023/07/02 09:08:28;;;;;;;1999.90;999.90;;;29.30;99.90;;;;;;5032538;28;20018;-72
2023/07/02 09:10:54;;;;;;;1999.90;999.90;;;28.70;99.90;;;;;;5033350;28;20030;-72
2023/07/02 09:13:20;;;;;;;1999.90;999.90;;;29.10;99.90;;;;;;5032904;28;20045;-72
2023/07/02 09:15:46;;;;;;;1999.90;999.90;;;29.20;99.90;;;;;;5033127;28;20037;-72
2023/07/02 09:18:16;;;;;;;1999.90;999.90;;;30.20;99.90;;;;;;5033557;28;20021;-72
2023/07/02 09:20:42;;;;;;;1999.90;999.90;;;30.90;99.90;;;;;;5033399;28;20040;-72
2023/07/02 09:23:08;;;;;;;1999.90;999.90;;;29.60;99.90;;;;;;5032993;28;20040;-72
2023/07/02 09:25:36;;;;;;;1999.90;999.90;;;28.10;99.90;;;;;;5032651;28;20497;-72
2023/07/02 09:28:01;;;;;;;1999.90;999.90;;;28.40;99.90;;;;;;5033276;28;20018;-72
2023/07/02 09:30:28;;;;;;;1999.90;999.90;;;30.20;99.90;;;;;;5032722;28;20084;-72
2023/07/02 09:32:54;;;;;;;1999.90;999.90;;;30.60;99.90;;;;;;5033708;28;20021;-72
2023/07/02 09:35:19;;;;;;;1999.90;999.90;;;31.00;99.90;;;;;;5037456;28;20524;-72
2023/07/02 09:37:46;;;;;;;1999.90;999.90;;;31.90;99.90;;;;;;5036594;28;20052;-72
2023/07/02 09:40:12;;;;;;;1999.90;999.90;;;29.00;99.90;;;;;;5037046;28;20037;-72
2023/07/02 09:42:40;;;;;;;1999.90;999.90;;;29.10;99.90;;;;;;5035764;28;20029;-73
2023/07/02 09:45:08;;;;;;;1999.90;999.90;;;29.00;99.90;;;;;;5036744;28;20392;-72
2023/07/02 09:47:42;;;;;;;1999.90;999.90;;;29.70;99.90;;;;;;5037317;28;20437;-72
2023/07/02 09:50:09;;;;;;;1999.90;999.90;;;29.80;99.90;;;;;;5036698;28;20049;-73
2023/07/02 09:52:35;;;;;;;1999.90;999.90;;;30.60;99.90;;;;;;5036796;28;20443;-72
2023/07/02 09:55:01;;;;;;;1999.90;999.90;;;30.80;99.90;;;;;;5036985;28;20036;-72
2023/07/02 09:57:31;;;;;;;1999.90;999.90;;;30.50;99.10;;;;;;5036632;28;20021;-72
2023/07/02 09:59:56;;;;;;;1999.90;999.90;;;30.10;99.90;;;;;;5037201;28;20029;-72
2023/07/02 10:02:22;;;;;;;1999.90;999.90;;;30.50;99.90;;;;;;5036248;28;20035;-72
2023/07/02 10:04:54;;;;;;;1999.90;999.90;;;30.10;99.90;;;;;;5036952;28;20468;-72
2023/07/02 10:07:30;;;;;;;1999.90;999.90;;;30.30;99.80;;;;;;5036315;28;20507;-72
2023/07/02 10:09:56;;;;;;;1999.90;999.90;;;30.20;99.90;;;;;;5035482;28;20037;-73
2023/07/02 10:12:26;;;;;;;1999.90;999.90;;;30.30;99.40;;;;;;5036336;28;20098;-72
2023/07/02 10:14:54;;;;;;;1999.90;999.90;;;30.20;98.60;;;;;;5036085;28;20501;-72
2023/07/02 10:17:28;;;;;;;1999.90;999.90;;;30.30;99.70;;;;;;5035949;28;20030;-73
2023/07/02 10:19:55;;;;;;;1999.90;999.90;;;30.60;99.60;;;;;;5036413;28;20031;-72
2023/07/02 10:22:21;;;;;;;1999.90;999.90;;;30.30;99.20;;;;;;5036270;28;20029;-72
2023/07/02 10:24:59;;;;;;;1999.90;999.90;;;30.00;99.60;;;;;;5036252;28;20075;-72
2023/07/02 10:27:41;;;;;;;1999.90;999.90;;;30.10;98.30;;;;;;5035249;28;20712;-72
2023/07/02 10:30:09;;;;;;;1999.90;999.90;;;29.90;98.80;;;;;;5036716;28;20037;-72
2023/07/02 10:32:36;;;;;;;1999.90;999.90;;;29.40;98.80;;;;;;5036060;28;20029;-72
2023/07/02 10:35:15;;;;;;;1999.90;999.90;;;29.40;99.10;;;;;;5036173;28;20033;-72
2023/07/02 10:37:41;;;;;;;1999.90;999.90;;;29.50;99.90;;;;;;5034422;28;20034;-72
2023/07/02 10:40:08;;;;;;;1999.90;999.90;;;30.30;98.50;;;;;;5035959;28;20029;-72
2023/07/02 10:42:44;;;;;;;1999.90;999.90;;;30.10;98.70;;;;;;5035887;28;20106;-73
2023/07/02 10:45:09;;;;;;;1999.90;999.90;;;30.70;98.00;;;;;;5035057;28;20029;-73
2023/07/02 10:47:40;;;;;;;1999.90;999.90;;;29.30;97.90;;;;;;5036136;28;20028;-72
2023/07/02 10:50:15;;;;;;;1999.90;999.90;;;29.30;99.90;;;;;;5035595;28;20109;-72
2023/07/02 10:52:41;;;;;;;1999.90;999.90;;;30.40;99.50;;;;;;5035743;28;20028;-72
2023/07/02 10:55:07;;;;;;;1999.90;999.90;;;30.00;98.90;;;;;;5035463;28;20037;-72
2023/07/02 10:57:33;;;;;;;1999.90;999.90;;;29.80;99.20;;;;;;5035967;28;20079;-72
2023/07/02 11:00:07;;;;;;;1999.90;999.90;;;30.20;98.60;;;;;;5035733;28;20038;-72
2023/07/02 11:02:35;;;;;;;1999.90;999.90;;;29.80;98.50;;;;;;5035222;28;20380;-72
2023/07/02 11:05:00;;;;;;;1999.90;999.90;;;30.20;98.40;;;;;;5035397;28;20022;-72
2023/07/02 11:07:26;;;;;;;1999.90;999.90;;;29.30;98.80;;;;;;5035243;28;20026;-72
2023/07/02 11:09:52;;;;;;;1999.90;999.90;;;28.60;98.60;;;;;;5034491;28;20481;-73
2023/07/02 11:12:17;;;;;;;1999.90;999.90;;;28.40;99.30;;;;;;5035807;28;20144;-72
2023/07/02 11:14:43;;;;;;;1999.90;999.90;;;28.60;99.90;;;;;;5034761;28;20462;-72
2023/07/02 11:17:09;;;;;;;1999.90;999.90;;;28.90;98.80;;;;;;5035111;28;20029;-72
2023/07/02 11:19:35;;;;;;;1999.90;999.90;;;29.00;99.90;;;;;;5034643;28;20140;-72
2023/07/02 11:22:02;;;;;;;1999.90;999.90;;;29.90;97.50;;;;;;5035938;28;20389;-72
2023/07/02 11:24:32;;;;;;;1999.90;999.90;;;29.90;96.70;;;;;;5034870;28;20164;-72
2023/07/02 11:27:02;;;;;;;1999.90;999.90;;;29.90;96.90;;;;;;5034932;28;20018;-72
2023/07/02 11:29:29;;;;;;;1999.90;999.90;;;29.80;95.90;;;;;;5034595;28;20468;-72
2023/07/02 11:32:04;;;;;;;1999.90;999.90;;;29.40;97.10;;;;;;5035321;28;20017;-72
2023/07/02 11:34:29;;;;;;;1999.90;999.90;;;28.80;97.90;;;;;;5035016;28;20112;-72
2023/07/02 11:36:55;;;;;;;1999.90;999.90;;;28.90;97.90;;;;;;5033893;28;20187;-73
2023/07/02 11:39:21;;;;;;;1999.90;999.90;;;28.90;97.30;;;;;;5034701;28;20029;-72
2023/07/02 11:41:48;;;;;;;1999.90;999.90;;;28.70;97.50;;;;;;5035034;28;20038;-72
2023/07/02 11:44:15;;;;;;;1999.90;999.90;;;28.80;97.90;;;;;;5035042;28;20083;-72
2023/07/02 11:46:40;;;;;;;1999.90;999.90;;;28.00;97.70;;;;;;5034867;28;20484;-72
2023/07/02 11:49:09;;;;;;;1999.90;999.90;;;27.50;98.90;;;;;;5034605;28;20021;-72
2023/07/02 11:51:39;;;;;;;1999.90;999.90;;;27.60;99.30;;;;;;5034563;28;20028;-72
2023/07/02 11:54:05;;;;;;;1999.90;999.90;;;28.10;99.20;;;;;;5034509;28;20026;-71
2023/07/02 11:56:31;;;;;;;1999.90;999.90;;;27.50;98.90;;;;;;5033594;28;20444;-73